Time;durP1;ratioP1;P1;durP2;ratioP2;P2;SDS_P1;SDS_P2;PMS_P1;PMS_P2;Temp;Humidity;BMP_temperature;BMP_pressure;BME280_temperature;BME280_humidity;BME280_pressure;Samples;Min_cycle;Max_cycle;Signal;HPM_P1;HPM_P2
2022/10/24 00:02:07;;;;;;;19.20;4.07;;;;;;;13.42;100.00;100215.13;5052515;28;20097;-71
2022/10/24 00:04:38;;;;;;;19.52;4.15;;;;;;;13.45;100.00;100222.16;5052483;28;20025;-71
2022/10/24 00:07:05;;;;;;;18.40;4.40;;;;;;;13.44;100.00;100217.78;5052518;28;20025;-71
2022/10/24 00:09:31;;;;;;;19.77;4.18;;;;;;;13.49;100.00;100204.41;5052286;28;20035;-65
2022/10/24 00:11:56;;;;;;;16.13;4.10;;;;;;;13.49;100.00;100209.72;5052695;28;20029;-71
2022/10/24 00:14:21;;;;;;;16.77;3.90;;;;;;;13.49;100.00;100205.28;5052288;28;20028;-72
2022/10/24 00:16:47;;;;;;;14.90;3.60;;;;;;;13.53;100.00;100206.13;5052207;28;20535;-70
2022/10/24 00:19:12;;;;;;;15.93;3.85;;;;;;;13.51;100.00;100207.91;5052132;28;20033;-71
2022/10/24 00:21:38;;;;;;;17.45;3.88;;;;;;;13.50;100.00;100215.00;5052158;28;20116;-71
2022/10/24 00:24:04;;;;;;;16.33;3.60;;;;;;;13.47;100.00;100215.06;5052428;28;20017;-72
2022/10/24 00:26:29;;;;;;;16.85;3.72;;;;;;;13.48;100.00;100200.84;5052135;28;20029;-65
2022/10/24 00:28:54;;;;;;;17.25;3.70;;;;;;;13.50;100.00;100199.06;5052166;28;20032;-65
2022/10/24 00:31:20;;;;;;;16.75;3.80;;;;;;;13.49;100.00;100201.75;5052128;28;20035;-65
2022/10/24 00:33:45;;;;;;;16.58;3.85;;;;;;;13.52;100.00;100207.88;5052389;28;20032;-66
2022/10/24 00:36:16;;;;;;;17.42;3.88;;;;;;;13.60;100.00;100202.41;5052259;28;20503;-65
2022/10/24 00:38:42;;;;;;;17.55;3.78;;;;;;;13.65;100.00;100195.25;5052224;28;20070;-65
2022/10/24 00:41:12;;;;;;;14.82;3.60;;;;;;;13.62;100.00;100199.75;5051981;28;20056;-65
2022/10/24 00:43:38;;;;;;;18.20;3.80;;;;;;;13.64;100.00;100197.94;5051868;28;20048;-65
2022/10/24 00:46:03;;;;;;;16.65;3.85;;;;;;;13.59;100.00;100196.25;5052424;28;20478;-65
2022/10/24 00:48:45;;;;;;;15.88;3.70;;;;;;;13.56;100.00;100195.44;5051889;28;20068;-65
2022/10/24 00:51:14;;;;;;;16.90;4.00;;;;;;;13.52;100.00;100193.72;5051856;28;20025;-65
2022/10/24 00:53:46;;;;;;;18.40;3.90;;;;;;;13.50;100.00;100190.22;5051722;28;20479;-65
2022/10/24 00:56:15;;;;;;;19.52;4.10;;;;;;;13.48;100.00;100195.56;5053544;28;20387;-65
2022/10/24 00:58:43;;;;;;;16.15;4.03;;;;;;;13.43;100.00;100194.78;5055559;28;20106;-65
2022/10/24 01:01:09;;;;;;;17.85;4.20;;;;;;;13.41;100.00;100180.63;5055497;28;20121;-65
2022/10/24 01:03:34;;;;;;;19.25;3.95;;;;;;;13.45;100.00;100194.75;5055615;28;20108;-65
2022/10/24 01:06:19;;;;;;;16.88;3.90;;;;;;;13.47;100.00;100191.16;5055367;28;20021;-65
2022/10/24 01:09:23;;;;;;;18.02;4.20;;;;;;;13.52;100.00;100181.31;5042545;28;20033;-65
2022/10/24 01:12:15;;;;;;;16.85;3.97;;;;;;;13.51;100.00;100186.66;5052177;28;20372;-65
2022/10/24 01:15:14;;;;;;;16.50;4.22;;;;;;;13.55;100.00;100188.38;5054833;28;20426;-71
2022/10/24 01:18:09;;;;;;;17.13;4.05;;;;;;;13.47;100.00;100177.00;5054484;28;20440;-70
2022/10/24 01:20:59;;;;;;;18.50;4.40;;;;;;;13.45;100.00;100182.34;5053857;28;20090;-69
2022/10/24 01:23:42;;;;;;;20.45;4.50;;;;;;;13.49;100.00;100185.81;5052337;28;20460;-70
2022/10/24 01:26:28;;;;;;;18.88;4.28;;;;;;;13.60;100.00;100173.19;5055158;28;20033;-69
2022/10/24 01:29:15;;;;;;;19.52;4.22;;;;;;;13.69;100.00;100170.41;5052053;28;20025;-71
2022/10/24 01:31:50;;;;;;;17.55;4.10;;;;;;;13.83;100.00;100178.06;5054924;28;20115;-70
2022/10/24 01:34:46;;;;;;;17.80;4.47;;;;;;;13.91;100.00;100178.81;5050717;28;20468;-71
2022/10/24 01:37:24;;;;;;;17.25;4.00;;;;;;;13.99;100.00;100175.13;5054885;28;20029;-71
2022/10/24 01:39:55;;;;;;;15.20;4.00;;;;;;;13.97;100.00;100174.28;5051402;28;20017;-69
2022/10/24 01:42:24;;;;;;;21.73;4.10;;;;;;;14.07;100.00;100170.53;5054606;28;20052;-70
2022/10/24 01:44:55;;;;;;;14.98;3.90;;;;;;;14.15;100.00;100173.03;5054733;28;20116;-69
2022/10/24 01:47:25;;;;;;;15.98;3.53;;;;;;;14.26;100.00;100169.22;5054821;28;20020;-70
2022/10/24 01:50:04;;;;;;;16.40;3.60;;;;;;;14.33;100.00;100171.75;5054510;28;20460;-70
2022/10/24 01:52:34;;;;;;;13.52;3.80;;;;;;;14.42;100.00;100160.94;5054627;28;20025;-71
2022/10/24 01:55:00;;;;;;;15.20;3.60;;;;;;;14.45;100.00;100158.19;5054349;28;20078;-69
2022/10/24 01:57:31;;;;;;;16.30;3.80;;;;;;;14.51;100.00;100147.41;5054432;28;20025;-67
2022/10/24 01:59:56;;;;;;;14.63;3.70;;;;;;;14.46;100.00;100157.31;5054493;28;20103;-71
2022/10/24 02:02:48;;;;;;;14.63;3.50;;;;;;;14.53;100.00;100150.03;5054416;28;20048;-71
2022/10/24 02:05:37;;;;;;;14.85;3.42;;;;;;;14.62;100.00;100158.72;5054080;28;20036;-65
2022/10/24 02:08:09;;;;;;;17.17;3.40;;;;;;;14.67;100.00;100152.44;5052314;28;20091;-65
2022/10/24 02:10:38;;;;;;;;;;;;;;;14.68;100.00;100159.47;5054469;28;20104;-64
2022/10/24 02:13:38;;;;;;;17.33;3.70;;;;;;;14.68;100.00;100163.03;5054468;28;19912;-65
2022/10/24 02:16:03;;;;;;;17.40;3.45;;;;;;;14.61;100.00;100161.38;5052402;28;20031;-65
2022/10/24 02:18:31;;;;;;;16.08;3.40;;;;;;;14.68;100.00;100148.84;5054423;28;20021;-65
2022/10/24 02:21:18;;;;;;;18.95;3.83;;;;;;;14.69;100.00;100142.63;5054038;28;20128;-65
2022/10/24 02:23:53;;;;;;;13.05;3.20;;;;;;;14.79;100.00;100150.34;5053888;28;20036;-65
2022/10/24 02:26:46;;;;;;;14.48;3.70;;;;;;;14.86;100.00;100161.69;5050277;28;20028;-65
2022/10/24 02:29:17;;;;;;;14.15;3.10;;;;;;;14.77;100.00;100152.16;5053037;28;20040;-65
2022/10/24 02:31:49;;;;;;;14.93;3.17;;;;;;;14.69;100.00;100147.94;5054063;28;20028;-64
2022/10/24 02:34:18;;;;;;;14.00;3.33;;;;;;;14.71;100.00;100140.78;5049895;28;20017;-65
2022/10/24 02:36:47;;;;;;;14.85;3.20;;;;;;;14.68;100.00;100146.16;5053644;28;20078;-65
2022/10/24 02:39:13;;;;;;;15.30;3.20;;;;;;;14.66;100.00;100156.00;5053819;28;20025;-65
2022/10/24 02:41:41;;;;;;;14.13;3.40;;;;;;;14.68;100.00;100147.06;5053615;28;20480;-65
2022/10/24 02:44:08;;;;;;;15.65;3.13;;;;;;;14.61;100.00;100154.31;5053766;28;20025;-65
2022/10/24 02:46:34;;;;;;;16.42;3.20;;;;;;;14.73;100.00;100149.63;5053419;28;20028;-65
2022/10/24 02:49:02;;;;;;;13.18;2.97;;;;;;;14.69;100.00;100150.59;5053398;28;20037;-65
2022/10/24 02:51:34;;;;;;;15.48;3.00;;;;;;;14.71;100.00;100156.72;5053602;28;20104;-65
2022/10/24 02:54:00;;;;;;;15.07;3.08;;;;;;;14.82;100.00;100158.25;5053291;28;20075;-65
2022/10/24 02:56:27;;;;;;;16.35;3.17;;;;;;;14.89;100.00;100153.63;5053090;28;20025;-64
2022/10/24 02:58:52;;;;;;;13.55;2.90;;;;;;;14.99;100.00;100147.19;5053705;28;20033;-64
2022/10/24 03:01:17;;;;;;;13.48;3.03;;;;;;;15.04;100.00;100152.38;5053345;28;20383;-65
2022/10/24 03:03:43;;;;;;;13.85;2.92;;;;;;;14.97;100.00;100150.81;5053216;28;20021;-65
2022/10/24 03:06:09;;;;;;;12.40;3.00;;;;;;;14.94;100.00;100149.09;5053393;28;20017;-65
2022/10/24 03:08:34;;;;;;;13.63;3.53;;;;;;;14.92;100.00;100158.88;5053062;28;20392;-64
2022/10/24 03:10:59;;;;;;;10.25;2.90;;;;;;;14.88;100.00;100162.56;5053289;28;20029;-64
2022/10/24 03:13:25;;;;;;;15.88;3.15;;;;;;;14.92;100.00;100166.00;5053271;28;20029;-65
2022/10/24 03:15:50;;;;;;;13.90;3.10;;;;;;;14.88;100.00;100157.25;5052830;28;20027;-65
2022/10/24 03:18:15;;;;;;;16.02;3.00;;;;;;;14.81;100.00;100158.28;5053394;28;20060;-65
2022/10/24 03:20:41;;;;;;;14.05;2.92;;;;;;;14.74;100.00;100157.56;5052187;28;20032;-65
2022/10/24 03:23:06;;;;;;;10.57;2.80;;;;;;;14.85;100.00;100159.09;5052629;28;20013;-65
2022/10/24 03:25:32;;;;;;;15.40;3.30;;;;;;;14.96;100.00;100152.59;5052963;28;20074;-65
2022/10/24 03:27:57;;;;;;;12.75;3.00;;;;;;;14.90;100.00;100157.19;5052718;28;20017;-65
2022/10/24 03:30:22;;;;;;;13.75;2.97;;;;;;;14.81;100.00;100151.19;5052705;28;20099;-64
2022/10/24 03:32:48;;;;;;;14.15;3.00;;;;;;;14.74;100.00;100156.69;5052931;28;20021;-64
2022/10/24 03:35:13;;;;;;;17.25;3.00;;;;;;;14.74;100.00;100154.03;5052590;28;20017;-65
2022/10/24 03:37:39;;;;;;;13.82;3.05;;;;;;;14.71;100.00;100151.41;5052693;28;20468;-65
2022/10/24 03:40:04;;;;;;;11.63;2.88;;;;;;;14.69;100.00;100147.94;5053048;28;20067;-65
2022/10/24 03:42:30;;;;;;;15.05;3.22;;;;;;;14.73;100.00;100144.28;5050998;28;20540;-65
2022/10/24 03:44:55;;;;;;;12.98;3.05;;;;;;;14.71;100.00;100140.78;5052738;28;20108;-71
2022/10/24 03:47:20;;;;;;;17.73;3.40;;;;;;;14.76;100.00;100138.91;5052881;28;20025;-68
2022/10/24 03:49:46;;;;;;;14.30;3.15;;;;;;;14.79;100.00;100136.16;5052745;28;20025;-70
2022/10/24 03:52:11;;;;;;;14.20;3.10;;;;;;;14.84;100.00;100142.25;5052718;28;20480;-70
2022/10/24 03:54:38;;;;;;;12.50;3.10;;;;;;;14.87;100.00;100135.97;5052378;28;20495;-70
2022/10/24 03:57:03;;;;;;;14.88;2.97;;;;;;;14.93;100.00;100127.84;5052342;28;20430;-71
2022/10/24 03:59:29;;;;;;;16.05;3.20;;;;;;;14.82;100.00;100139.63;5052501;28;20025;-69
2022/10/24 04:01:54;;;;;;;16.48;3.20;;;;;;;14.78;100.00;100142.38;5052633;28;20028;-69
2022/10/24 04:04:20;;;;;;;15.55;3.22;;;;;;;14.84;100.00;100130.72;5052540;28;20492;-70
2022/10/24 04:06:45;;;;;;;18.55;3.30;;;;;;;14.88;100.00;100141.28;5048713;28;20100;-70
2022/10/24 04:09:11;;;;;;;15.57;2.90;;;;;;;14.86;100.00;100144.88;5052403;28;20025;-70
2022/10/24 04:11:36;;;;;;;13.02;3.00;;;;;;;14.90;100.00;100157.19;5052582;28;20063;-70
2022/10/24 04:14:02;;;;;;;14.15;3.20;;;;;;;14.90;100.00;100146.56;5052624;28;20021;-70
2022/10/24 04:16:28;;;;;;;18.00;3.28;;;;;;;14.91;100.00;100156.25;5052259;28;20485;-69
2022/10/24 04:18:54;;;;;;;15.15;3.03;;;;;;;14.85;100.00;100137.78;5052319;28;20079;-70
2022/10/24 04:21:19;;;;;;;14.70;3.35;;;;;;;14.92;100.00;100145.59;5052426;28;20021;-69
2022/10/24 04:23:44;;;;;;;15.85;3.05;;;;;;;14.92;100.00;100140.25;5052072;28;20037;-69
2022/10/24 04:26:13;;;;;;;13.05;2.85;;;;;;;14.94;100.00;100137.56;5052227;28;20051;-69
2022/10/24 04:28:38;;;;;;;15.35;3.03;;;;;;;14.94;100.00;100129.56;5052173;28;20029;-69
2022/10/24 04:31:04;;;;;;;12.68;2.80;;;;;;;15.00;100.00;100145.41;5053216;28;20017;-70
2022/10/24 04:33:29;;;;;;;12.93;2.72;;;;;;;14.99;100.00;100127.69;5056363;28;20029;-70
2022/10/24 04:35:55;;;;;;;12.85;2.88;;;;;;;14.99;100.00;100135.66;5056060;28;20029;-65
2022/10/24 04:38:20;;;;;;;12.88;2.55;;;;;;;14.92;100.00;100132.28;5055875;28;20534;-64
2022/10/24 04:40:52;;;;;;;10.82;2.70;;;;;;;14.90;100.00;100126.13;5056023;28;20021;-65
2022/10/24 04:43:18;;;;;;;16.67;2.90;;;;;;;14.97;100.00;100132.19;5051893;28;20029;-64
2022/10/24 04:45:44;;;;;;;12.57;2.70;;;;;;;14.97;100.00;100133.06;5055696;28;20028;-65
2022/10/24 04:48:09;;;;;;;16.20;2.70;;;;;;;14.89;100.00;100137.69;5055693;28;20041;-65
2022/10/24 04:50:35;;;;;;;11.65;2.60;;;;;;;14.95;100.00;100137.53;5055611;28;20028;-65
2022/10/24 04:53:01;;;;;;;15.18;2.80;;;;;;;14.95;100.00;100141.97;5055742;28;20083;-65
2022/10/24 04:55:27;;;;;;;13.25;2.70;;;;;;;14.97;100.00;100127.72;5055665;28;20017;-64
2022/10/24 04:57:52;;;;;;;14.70;2.88;;;;;;;14.97;100.00;100140.16;5055635;28;20114;-64
2022/10/24 05:00:17;;;;;;;14.50;2.80;;;;;;;15.08;100.00;100127.44;5055494;28;20040;-64
2022/10/24 05:02:43;;;;;;;17.75;2.80;;;;;;;15.09;100.00;100138.97;5055836;28;20025;-65
2022/10/24 05:05:08;;;;;;;14.70;2.72;;;;;;;15.15;100.00;100139.69;5055446;28;20434;-65
2022/10/24 05:07:33;;;;;;;13.98;2.85;;;;;;;15.22;100.00;100126.19;5055305;28;20052;-64
2022/10/24 05:09:59;;;;;;;13.80;2.63;;;;;;;15.18;100.00;100122.75;5055762;28;20029;-65
2022/10/24 05:12:24;;;;;;;16.65;2.88;;;;;;;15.10;100.00;100148.69;5055581;28;20384;-64
2022/10/24 05:14:49;;;;;;;12.82;2.78;;;;;;;15.05;100.00;100146.16;5055396;28;20476;-64
2022/10/24 05:17:15;;;;;;;13.27;2.70;;;;;;;14.97;100.00;100143.69;5055824;28;20058;-64
2022/10/24 05:19:40;;;;;;;17.40;2.92;;;;;;;15.08;100.00;100150.53;5047578;28;20033;-71
2022/10/24 05:22:06;;;;;;;17.33;3.03;;;;;;;15.12;100.00;100145.09;5047641;28;20017;-73
2022/10/24 05:24:31;;;;;;;14.32;2.65;;;;;;;15.10;100.00;100154.00;5047027;28;20033;-72
2022/10/24 05:26:56;;;;;;;14.23;2.80;;;;;;;15.18;100.00;100165.34;5044875;28;20370;-78
2022/10/24 05:29:22;;;;;;;13.25;2.80;;;;;;;15.19;100.00;100160.91;5047725;28;20056;-72
2022/10/24 05:31:47;;;;;;;13.80;2.80;;;;;;;15.21;100.00;100173.25;5045413;28;20115;-64
2022/10/24 05:34:12;;;;;;;13.60;3.10;;;;;;;15.19;100.00;100159.13;5045003;28;20049;-64
2022/10/24 05:36:38;;;;;;;16.40;3.35;;;;;;;15.23;100.00;100163.47;5044331;28;20042;-64
2022/10/24 05:39:03;;;;;;;15.77;2.90;;;;;;;15.15;100.00;100158.31;5044216;28;20033;-63
2022/10/24 05:41:28;;;;;;;15.75;2.88;;;;;;;15.19;100.00;100153.81;5047502;28;20041;-65
2022/10/24 05:43:54;;;;;;;19.85;2.95;;;;;;;15.21;100.00;100165.28;5050598;28;20029;-65
2022/10/24 05:46:19;;;;;;;17.20;3.20;;;;;;;15.23;100.00;100163.47;5049026;28;20017;-64
2022/10/24 05:48:45;;;;;;;16.80;2.90;;;;;;;15.41;100.00;100171.91;5048044;28;20106;-64
2022/10/24 05:51:10;;;;;;;15.13;2.90;;;;;;;15.46;100.00;100168.16;5045609;28;20391;-64
2022/10/24 05:53:35;;;;;;;20.80;3.00;;;;;;;15.38;100.00;100162.19;5048210;28;20024;-63
2022/10/24 05:56:01;;;;;;;11.35;2.60;;;;;;;15.29;100.00;100171.28;5045603;28;20031;-64
2022/10/24 05:58:26;;;;;;;12.90;2.60;;;;;;;15.30;100.00;100166.81;5046320;28;20096;-78
2022/10/24 06:00:52;;;;;;;19.42;3.10;;;;;;;15.21;100.00;100151.97;5044969;28;20021;-83
2022/10/24 06:03:18;;;;;;;14.70;2.90;;;;;;;15.25;100.00;100161.63;5045563;28;20496;-80
2022/10/24 06:05:43;;;;;;;18.20;2.78;;;;;;;15.27;100.00;100189.06;5043612;28;20099;-82
2022/10/24 06:08:09;;;;;;;13.50;2.83;;;;;;;15.20;100.00;100174.16;5049544;28;20017;-78
2022/10/24 06:10:34;;;;;;;19.48;3.15;;;;;;;15.18;100.00;100177.81;5046304;28;20061;-76
2022/10/24 06:13:00;;;;;;;16.45;2.83;;;;;;;15.18;100.00;100173.34;5049196;28;20021;-75
2022/10/24 06:15:26;;;;;;;14.07;2.65;;;;;;;15.20;100.00;100171.50;5047110;28;20033;-79
2022/10/24 06:17:51;;;;;;;14.95;2.80;;;;;;;15.13;100.00;100188.53;5047878;28;20144;-68
2022/10/24 06:20:17;;;;;;;14.77;2.67;;;;;;;15.10;100.00;100186.84;5050027;28;20458;-81
2022/10/24 06:22:44;;;;;;;16.42;2.85;;;;;;;14.97;100.00;100188.94;5046174;28;20033;-77
2022/10/24 06:25:10;;;;;;;16.23;2.90;;;;;;;14.84;100.00;100184.81;5045163;28;20032;-79
2022/10/24 06:27:36;;;;;;;16.73;3.00;;;;;;;14.80;100.00;100178.69;5047276;28;20063;-75
2022/10/24 06:30:01;;;;;;;15.40;2.78;;;;;;;14.90;100.00;100183.81;5045019;28;20021;-76
2022/10/24 06:32:26;;;;;;;15.95;2.83;;;;;;;14.92;100.00;100171.31;5046688;28;20026;-63
2022/10/24 06:34:52;;;;;;;18.85;2.90;;;;;;;14.89;100.00;100174.94;5046448;28;20041;-63
2022/10/24 06:37:17;;;;;;;17.70;2.83;;;;;;;14.86;100.00;100183.00;5044477;28;20032;-63
2022/10/24 06:39:42;;;;;;;20.15;3.10;;;;;;;14.88;100.00;100188.28;5044626;28;20120;-63
2022/10/24 06:42:08;;;;;;;18.23;2.80;;;;;;;14.76;100.00;100184.13;5047533;28;20025;-71
2022/10/24 06:44:33;;;;;;;17.40;2.97;;;;;;;14.74;100.00;100193.94;5048966;28;20403;-71
2022/10/24 06:46:59;;;;;;;18.63;2.90;;;;;;;14.76;100.00;100208.06;5045583;28;20029;-67
2022/10/24 06:49:24;;;;;;;15.90;2.90;;;;;;;14.70;100.00;100218.84;5049078;28;20044;-68
2022/10/24 06:51:49;;;;;;;16.98;2.72;;;;;;;14.77;100.00;100215.16;5042861;28;20487;-72
2022/10/24 06:54:15;;;;;;;18.40;2.90;;;;;;;14.75;100.00;100220.50;5043439;28;20108;-75
2022/10/24 06:56:41;;;;;;;18.52;3.05;;;;;;;14.83;100.00;100230.97;5045626;28;20029;-74
2022/10/24 06:59:10;;;;;;;16.75;2.97;;;;;;;14.92;100.00;100248.50;5046569;28;20471;-78
2022/10/24 07:01:36;;;;;;;17.17;3.13;;;;;;;15.02;100.00;100250.03;5048319;28;20464;-74
2022/10/24 07:04:01;;;;;;;16.60;2.70;;;;;;;15.10;100.00;100234.78;5038789;28;20041;-71
2022/10/24 07:06:28;;;;;;;16.75;2.70;;;;;;;14.86;100.00;100211.41;5046926;28;20163;-70
2022/10/24 07:08:56;;;;;;;18.60;2.88;;;;;;;14.84;100.00;100226.50;5049785;28;20028;-75
2022/10/24 07:11:22;;;;;;;17.13;2.90;;;;;;;14.68;100.00;100237.50;5046751;28;20048;-72
2022/10/24 07:13:47;;;;;;;17.02;2.80;;;;;;;14.69;100.00;100233.06;5047396;28;20017;-76
2022/10/24 07:16:13;;;;;;;18.20;3.30;;;;;;;14.57;100.00;100227.06;5047379;28;20087;-75
2022/10/24 07:18:38;;;;;;;18.25;2.90;;;;;;;14.48;100.00;100235.25;5048724;28;20020;-68
2022/10/24 07:21:07;;;;;;;17.90;2.80;;;;;;;14.39;100.00;100241.63;5043550;28;20041;-68
2022/10/24 07:23:34;;;;;;;17.40;2.90;;;;;;;14.47;100.00;100241.47;5045826;28;20037;-77
2022/10/24 07:26:02;;;;;;;16.35;2.85;;;;;;;14.51;100.00;100252.94;5048242;28;20037;-79
2022/10/24 07:28:27;;;;;;;17.42;2.90;;;;;;;14.63;100.00;100261.56;5045154;28;20112;-74
2022/10/24 07:30:52;;;;;;;17.80;2.90;;;;;;;14.69;100.00;100264.97;5047125;28;20100;-71
2022/10/24 07:33:18;;;;;;;19.48;3.10;;;;;;;14.79;100.00;100263.84;5044144;28;20480;-73
2022/10/24 07:35:43;;;;;;;17.88;3.10;;;;;;;14.78;100.00;100275.41;5049856;28;20036;-70
2022/10/24 07:38:08;;;;;;;17.55;3.00;;;;;;;14.77;100.00;100265.69;5045609;28;20060;-69
2022/10/24 07:40:34;;;;;;;17.05;3.00;;;;;;;14.86;100.00;100276.13;5046086;28;20032;-73
2022/10/24 07:42:59;;;;;;;15.98;2.78;;;;;;;14.92;100.00;100275.09;5051237;28;20021;-69
2022/10/24 07:45:26;;;;;;;19.08;2.90;;;;;;;15.03;100.00;100285.50;5044926;28;20040;-69
2022/10/24 07:47:52;;;;;;;17.58;2.88;;;;;;;15.14;100.00;100286.13;5047704;28;20025;-69
2022/10/24 07:50:18;;;;;;;19.25;3.25;;;;;;;15.18;100.00;100300.25;5047415;28;20029;-69
2022/10/24 07:52:43;;;;;;;18.88;3.20;;;;;;;15.15;100.00;100317.16;5042650;28;20071;-68
2022/10/24 07:55:09;;;;;;;18.52;2.78;;;;;;;15.04;100.00;100327.19;5047002;28;20029;-69
2022/10/24 07:57:34;;;;;;;15.60;2.80;;;;;;;14.93;100.00;100307.00;5050464;28;20066;-68
2022/10/24 07:59:59;;;;;;;16.80;2.85;;;;;;;15.15;100.00;100318.03;5044124;28;20060;-69
2022/10/24 08:02:25;;;;;;;16.77;2.80;;;;;;;15.18;100.00;100325.09;5047467;28;20024;-69
2022/10/24 08:04:50;;;;;;;14.07;2.60;;;;;;;15.09;100.00;100325.31;5049311;28;20088;-69
2022/10/24 08:07:16;;;;;;;17.02;2.78;;;;;;;15.04;100.00;100328.03;5055831;28;20064;-67
2022/10/24 08:09:44;;;;;;;16.08;2.53;;;;;;;15.10;100.00;100329.69;5052994;28;20017;-70
2022/10/24 08:12:09;;;;;;;15.60;2.80;;;;;;;15.17;100.00;100326.00;5051124;28;20029;-68
2022/10/24 08:14:39;;;;;;;16.33;2.80;;;;;;;15.33;100.00;100353.13;5051717;28;20070;-73
2022/10/24 08:17:04;;;;;;;16.52;2.80;;;;;;;15.32;100.00;100341.63;5052123;28;20063;-67
2022/10/24 08:19:31;;;;;;;16.83;2.83;;;;;;;15.36;100.00;100339.75;5051783;28;20052;-66
2022/10/24 08:21:56;;;;;;;16.48;2.60;;;;;;;15.52;100.00;100346.50;5051047;28;20486;-68
2022/10/24 08:24:22;;;;;;;19.42;2.88;;;;;;;15.67;100.00;100342.56;5051215;28;20104;-69
2022/10/24 08:26:47;;;;;;;19.10;2.83;;;;;;;15.71;100.00;100350.47;5047850;28;20033;-68
2022/10/24 08:29:14;;;;;;;15.88;2.90;;;;;;;15.74;100.00;100358.38;5051370;28;20474;-67
2022/10/24 08:31:40;;;;;;;18.95;2.88;;;;;;;15.78;100.00;100344.97;5052002;28;20099;-67
2022/10/24 08:34:05;;;;;;;16.90;2.75;;;;;;;15.80;100.00;100358.25;5049647;28;20090;-68
2022/10/24 08:36:33;;;;;;;17.63;2.92;;;;;;;15.71;100.00;100356.66;5050938;28;20025;-66
2022/10/24 08:38:59;;;;;;;15.70;2.60;;;;;;;15.58;100.00;100347.22;5053711;28;20090;-71
2022/10/24 08:41:36;;;;;;;16.30;2.78;;;;;;;15.48;100.00;100357.25;5055846;28;20032;-70
2022/10/24 08:44:13;;;;;;;19.25;3.10;;;;;;;15.38;100.00;100372.56;5055931;28;20527;-69
2022/10/24 08:46:56;;;;;;;15.45;2.80;;;;;;;15.56;100.00;100365.91;5051382;28;20028;-70
2022/10/24 08:49:28;;;;;;;15.82;2.53;;;;;;;15.62;100.00;100375.56;5053907;28;20079;-67
2022/10/24 08:52:01;;;;;;;17.33;2.78;;;;;;;15.70;100.00;100370.94;5051618;28;20507;-75
2022/10/24 08:54:32;;;;;;;17.67;2.78;;;;;;;15.61;100.00;100364.03;5055690;28;20353;-69
2022/10/24 08:56:58;;;;;;;16.50;2.70;;;;;;;15.66;100.00;100362.13;5055527;28;20029;-66
2022/10/24 08:59:27;;;;;;;18.30;2.72;;;;;;;15.69;100.00;100367.38;5055547;28;20071;-73
2022/10/24 09:02:18;;;;;;;16.02;2.70;;;;;;;15.81;100.00;100368.03;5055900;28;20017;-67
2022/10/24 09:04:55;;;;;;;16.45;2.88;;;;;;;15.91;100.00;100371.34;5055200;28;20106;-71
2022/10/24 09:07:22;;;;;;;16.65;2.50;;;;;;;16.01;100.00;100373.72;5052156;28;20033;-72
2022/10/24 09:09:50;;;;;;;13.57;2.33;;;;;;;16.12;100.00;100367.22;5055317;28;20070;-68
2022/10/24 09:12:18;;;;;;;15.93;2.70;;;;;;;16.23;100.00;100378.50;5055287;28;20075;-69
2022/10/24 09:14:46;;;;;;;16.50;2.53;;;;;;;16.29;100.00;100366.78;5055485;28;20051;-64
2022/10/24 09:17:21;;;;;;;16.38;3.00;;;;;;;16.49;100.00;100384.94;5054044;28;20025;-65
2022/10/24 09:20:06;;;;;;;16.23;2.60;;;;;;;16.42;100.00;100391.34;5048689;28;20468;-68
2022/10/24 09:22:34;;;;;;;19.50;2.85;;;;;;;16.35;100.00;100398.63;5048215;28;20036;-63
2022/10/24 09:25:11;;;;;;;14.45;2.50;;;;;;;16.49;100.00;100396.47;5046332;28;20028;-64
2022/10/24 09:27:38;;;;;;;17.08;2.53;;;;;;;16.51;100.00;100396.44;5049611;28;20384;-65
2022/10/24 09:30:06;;;;;;;17.30;2.90;;;;;;;16.48;100.00;100388.50;5045328;28;20420;-64
2022/10/24 09:32:34;;;;;;;15.35;2.50;;;;;;;16.56;100.00;100389.19;5046054;28;20483;-62
2022/10/24 09:35:04;;;;;;;17.83;2.90;;;;;;;16.69;100.00;100401.25;5047423;28;20031;-61
2022/10/24 09:37:32;;;;;;;15.90;2.60;;;;;;;16.81;100.00;100423.19;5047743;28;20083;-62
2022/10/24 09:40:16;;;;;;;16.10;2.78;;;;;;;16.95;100.00;100414.81;5046449;28;20076;-65
2022/10/24 09:43:05;;;;;;;16.95;2.63;;;;;;;16.92;100.00;100415.78;5047896;28;20021;-72
2022/10/24 09:45:38;;;;;;;16.77;2.70;;;;;;;17.06;100.00;100424.25;5048913;28;20116;-71
2022/10/24 09:48:34;;;;;;;15.82;2.70;;;;;;;17.36;100.00;100429.63;5049685;28;20545;-71
2022/10/24 09:51:01;;;;;;;15.75;2.65;;;;;;;17.40;100.00;100436.63;5046941;28;20505;-71
2022/10/24 09:53:28;;;;;;;13.88;2.42;;;;;;;17.52;100.00;100430.03;5048244;28;20368;-71
2022/10/24 09:55:58;;;;;;;19.17;3.28;;;;;;;17.93;100.00;100437.69;5048359;28;20140;-70
2022/10/24 09:58:31;;;;;;;18.83;3.20;;;;;;;18.32;100.00;100429.25;5047301;28;20033;-70
2022/10/24 10:01:19;;;;;;;15.73;2.67;;;;;;;18.53;100.00;100442.81;5048300;28;20487;-69
2022/10/24 10:04:04;;;;;;;18.65;2.83;;;;;;;18.55;100.00;100440.94;5043583;28;20040;-70
2022/10/24 10:06:30;;;;;;;16.55;2.90;;;;;;;18.09;100.00;100433.56;5054165;28;20021;-70
2022/10/24 10:08:57;;;;;;;18.55;3.00;;;;;;;17.69;100.00;100441.97;5054289;28;20025;-69
2022/10/24 10:11:25;;;;;;;18.00;2.85;;;;;;;17.40;100.00;100439.28;5054402;28;20029;-70
2022/10/24 10:13:54;;;;;;;17.35;2.90;;;;;;;17.34;100.00;100449.28;5054062;28;20029;-69
2022/10/24 10:16:38;;;;;;;16.75;3.00;;;;;;;17.05;100.00;100429.63;5054509;28;20028;-70
2022/10/24 10:19:13;;;;;;;17.33;3.10;;;;;;;16.75;100.00;100461.59;5050605;28;20033;-71
2022/10/24 10:22:00;;;;;;;17.25;2.90;;;;;;;17.70;100.00;100454.41;5051184;28;20484;-64
2022/10/24 10:24:39;;;;;;;16.38;2.80;;;;;;;18.13;100.00;100469.13;5054067;28;20427;-64
2022/10/24 10:27:25;;;;;;;19.65;3.00;;;;;;;18.78;100.00;100475.78;5050554;28;20468;-64
2022/10/24 10:30:06;;;;;;;16.35;2.90;;;;;;;19.41;100.00;100475.34;5052246;28;20025;-65
2022/10/24 10:32:41;;;;;;;18.45;2.97;;;;;;;19.86;100.00;100465.56;5050011;28;20021;-65
2022/10/24 10:35:18;;;;;;;18.67;3.20;;;;;;;19.42;100.00;100485.09;5050530;28;20058;-65
2022/10/24 10:38:01;;;;;;;16.67;2.60;;;;;;;18.79;100.00;100500.78;5053447;28;20107;-65
2022/10/24 10:40:45;;;;;;;18.60;3.17;;;;;;;18.06;100.00;100484.50;5053843;28;20033;-71
2022/10/24 10:43:44;;;;;;;17.98;3.03;;;;;;;17.67;100.00;100486.59;5050698;28;20027;-70
2022/10/24 10:46:30;;;;;;;18.27;2.90;;;;;;;17.16;100.00;100496.09;5050934;28;20021;-70
2022/10/24 10:49:34;;;;;;;16.88;2.90;;;;;;;16.27;100.00;100497.50;5053336;28;20045;-70
2022/10/24 10:52:07;;;;;;;17.48;2.90;;;;;;;14.95;100.00;100522.53;5053437;28;20060;-71
2022/10/24 10:54:47;;;;;;;17.77;2.83;;;;;;;14.24;100.00;100497.13;5049910;28;20388;-70
2022/10/24 10:57:17;;;;;;;19.70;3.40;;;;;;;13.89;100.00;100501.22;5050823;28;20064;-70
2022/10/24 11:00:18;;;;;;;19.10;3.10;;;;;;;13.81;100.00;100514.63;5053255;28;20032;-70
2022/10/24 11:02:52;;;;;;;17.30;3.10;;;;;;;13.55;100.00;100521.16;5044593;28;20095;-70
2022/10/24 11:05:55;;;;;;;18.15;3.25;;;;;;;13.42;100.00;100524.88;5051137;28;20454;-71
2022/10/24 11:08:55;;;;;;;16.77;3.28;;;;;;;13.34;100.00;100517.00;5051259;28;20040;-70
2022/10/24 11:11:27;;;;;;;17.55;3.22;;;;;;;13.64;100.00;100512.19;5001400;28;20044;-70
2022/10/24 11:14:02;;;;;;;18.48;3.45;;;;;;;14.37;100.00;100519.09;5002025;28;20038;-70
2022/10/24 11:16:29;;;;;;;18.35;3.40;;;;;;;15.37;100.00;100513.75;5000283;28;20034;-70
2022/10/24 11:19:24;;;;;;;17.77;3.13;;;;;;;16.25;100.00;100519.78;5002119;28;20106;-70
2022/10/24 11:21:50;;;;;;;19.98;3.40;;;;;;;17.12;100.00;100519.34;5009499;28;20045;-71
2022/10/24 11:24:20;;;;;;;17.85;3.00;;;;;;;18.08;100.00;100519.19;5011002;28;20034;-70